Aérodrome :
LOGIN :

S'inscrire | Disclaimer

   EN    FR    IT 

 










Légende :    VFR   VFR Marginal   IFR   IFR Intensif   IFR Très Intensif
Visi : 
Plafond : 
>= 8 km
>= 3000ft
5 à 8 km
1000 à 3000 ft
1500m à 5 km
500 à 1000 ft
800 à 1500m
200 à 500 ft
< 800m
< 200 ft
Symboles :   Orages  Brouillard  Fortes neiges  Fortes précipitations  Vent > 20 kt
SIGMETs :   Divers  Orages  Givrage  Turbulence  Onde Orograph.  Cendres Volcan.






- Altitude de l'aérodrome : 443 ft
- Code IATA : SQQ


EYSA - Siauliai

DERNIER METAR :
  • 042050Z 14020KT 9999 OVC009 03/01 Q1011 R14L/19//95 R14R/19//95 GRN NOSIG

METARs EXPIRÉS :
  • 042020Z 14019KT 9999 OVC009 03/01 Q1011 R14L/19//95 R14R/19//95 GRN NOSIG
  • 041950Z 14016KT 9999 OVC009 02/01 Q1012 R14L/19//95 R14R/19//95 GRN NOSIG
  • 041920Z 14017G27KT 9999 OVC008 02/01 Q1012 R14L/19//95 R14R/19//95 GRN NOSIG
  • 041850Z 14019KT 9999 OVC009 02/01 Q1011 R14L/19//95 R14R/19//95 GRN NOSIG
  • 041820Z 14019KT 9999 OVC009 02/00 Q1011 R14L/19//95 R14R/19//95 GRN NOSIG

TAF TAF EYSA
Valide du 04 à 21h jusqu'au 05 à 06h UTC


042006Z 0421/0506 14016G26KT 7000 OVC005



MET'MAP, la Météo Aéronautique d'un coup d'oeil ! - Copyright ORBIFLY Décembre 2007 - Disclaimer

ORBIFLY MET'MAP TEAM :

Programmation & Développement : Alexandra Zaïnal
Sur une idée originale de : Baudouin d'Aumeries
Assistance à la programmation : Marc-Olivier Méhu
Soutien technique & logistique : Manuel Goepfert

Contact : metmap@orbifly.com




SOURCES & CREDITS :

   NOAA